Time;durP1;ratioP1;P1;durP2;ratioP2;P2;SDS_P1;SDS_P2;PMS_P1;PMS_P2;Temp;Humidity;BMP_temperature;BMP_pressure;BME280_temperature;BME280_humidity;BME280_pressure;Samples;Min_cycle;Max_cycle;Signal;HPM_P1;HPM_P2
2024/01/16 00:00:12;;;;;;;7.18;2.30;;;0.10;99.90;;;;;;4952179;28;20078;-62
2024/01/16 00:02:37;;;;;;;4.10;2.22;;;0.10;99.90;;;;;;4953450;28;20035;-61
2024/01/16 00:05:04;;;;;;;2.92;1.75;;;0.10;99.90;;;;;;4953006;28;20479;-62
2024/01/16 00:07:29;;;;;;;5.75;2.72;;;0.20;99.90;;;;;;4950080;29;20058;-61
2024/01/16 00:09:55;;;;;;;6.30;2.42;;;0.20;99.90;;;;;;4937988;29;20067;-61
2024/01/16 00:12:21;;;;;;;4.30;2.38;;;0.20;99.90;;;;;;4948672;28;20086;-63
2024/01/16 00:14:46;;;;;;;5.40;2.20;;;0.20;99.90;;;;;;4956083;28;20035;-62
2024/01/16 00:17:12;;;;;;;5.50;2.40;;;0.20;99.90;;;;;;4948296;28;20459;-61
2024/01/16 00:19:37;;;;;;;3.15;1.70;;;0.20;99.90;;;;;;4951628;28;20028;-62
2024/01/16 00:22:04;;;;;;;7.85;2.42;;;0.20;99.90;;;;;;4950818;28;20024;-61
2024/01/16 00:24:30;;;;;;;8.50;2.17;;;0.20;99.90;;;;;;4951374;28;20035;-63
2024/01/16 00:26:56;;;;;;;7.07;2.00;;;0.20;99.90;;;;;;4943008;28;20055;-62
2024/01/16 00:29:22;;;;;;;3.67;1.67;;;0.20;99.90;;;;;;4934323;28;20554;-62
2024/01/16 00:31:47;;;;;;;5.53;2.60;;;0.20;99.90;;;;;;4948259;28;20048;-59
2024/01/16 00:34:13;;;;;;;3.00;1.52;;;0.20;99.90;;;;;;4950190;28;20016;-60
2024/01/16 00:36:39;;;;;;;8.40;1.92;;;0.20;99.90;;;;;;4950517;28;20036;-60
2024/01/16 00:39:05;;;;;;;2.97;1.73;;;0.20;99.90;;;;;;4954453;28;20027;-63
2024/01/16 00:41:30;;;;;;;6.40;2.05;;;0.20;99.90;;;;;;4955616;28;20499;-61
2024/01/16 00:43:56;;;;;;;3.38;1.92;;;0.20;99.90;;;;;;4947899;28;20507;-60
2024/01/16 00:46:22;;;;;;;3.65;1.60;;;0.20;99.90;;;;;;4932124;29;20024;-61
2024/01/16 00:48:48;;;;;;;5.32;2.40;;;0.20;99.90;;;;;;4949014;28;20058;-61
2024/01/16 00:51:13;;;;;;;3.83;2.05;;;0.20;99.90;;;;;;4955355;28;20114;-61
2024/01/16 00:53:43;;;;;;;4.13;1.90;;;0.20;99.90;;;;;;4963241;28;20046;-63
2024/01/16 00:56:10;;;;;;;5.28;2.10;;;0.20;99.90;;;;;;4943382;28;20501;-63
2024/01/16 00:58:35;;;;;;;6.82;2.75;;;0.20;99.90;;;;;;4946401;28;20525;-62
2024/01/16 01:01:01;;;;;;;4.90;1.90;;;0.10;99.90;;;;;;4943740;28;20035;-60
2024/01/16 01:03:26;;;;;;;3.60;1.90;;;0.10;99.90;;;;;;4946314;28;20023;-61
2024/01/16 01:05:52;;;;;;;10.13;2.47;;;0.10;99.90;;;;;;4949302;28;20059;-61
2024/01/16 01:08:18;;;;;;;5.10;2.25;;;0.10;99.90;;;;;;4949417;28;20028;-61
2024/01/16 01:10:44;;;;;;;5.05;1.90;;;0.10;99.90;;;;;;4949474;28;20097;-61
2024/01/16 01:13:09;;;;;;;4.07;2.20;;;0.10;99.90;;;;;;4925274;28;20773;-63
2024/01/16 01:15:35;;;;;;;2.75;1.90;;;0.10;99.90;;;;;;4926966;29;20039;-62
2024/01/16 01:18:01;;;;;;;5.78;1.80;;;0.10;99.90;;;;;;4940048;28;20384;-61
2024/01/16 01:20:26;;;;;;;3.03;1.70;;;0.10;99.90;;;;;;4948754;28;20914;-61
2024/01/16 01:22:52;;;;;;;4.30;1.85;;;0.20;99.90;;;;;;4951635;28;20023;-63
2024/01/16 01:25:18;;;;;;;5.72;2.47;;;0.20;99.90;;;;;;4949632;28;20484;-62
2024/01/16 01:27:43;;;;;;;3.15;2.05;;;0.20;99.90;;;;;;4932719;28;20098;-60
2024/01/16 01:30:10;;;;;;;5.35;2.13;;;0.20;99.90;;;;;;4928176;29;20106;-61
2024/01/16 01:32:36;;;;;;;3.78;2.10;;;0.30;99.90;;;;;;4934120;28;20028;-60
2024/01/16 01:35:02;;;;;;;7.10;2.40;;;0.30;99.90;;;;;;4946900;28;20011;-60
2024/01/16 01:37:28;;;;;;;5.72;1.90;;;0.30;99.90;;;;;;4949524;28;20012;-61
2024/01/16 01:39:54;;;;;;;3.70;2.47;;;0.30;99.90;;;;;;4949058;28;20032;-61
2024/01/16 01:42:19;;;;;;;5.05;1.90;;;0.30;99.90;;;;;;4950114;28;20032;-62
2024/01/16 01:44:45;;;;;;;3.22;2.10;;;0.30;99.90;;;;;;4948610;28;20035;-61
2024/01/16 01:47:11;;;;;;;3.40;1.80;;;0.30;99.90;;;;;;4946404;28;20043;-62
2024/01/16 01:49:38;;;;;;;5.25;2.00;;;0.20;99.90;;;;;;4944355;28;20038;-61
2024/01/16 01:52:05;;;;;;;4.40;2.58;;;0.20;99.90;;;;;;4948082;28;20035;-63
2024/01/16 01:54:33;;;;;;;4.10;2.00;;;0.20;99.90;;;;;;4948588;28;20507;-61
2024/01/16 01:56:58;;;;;;;4.78;1.60;;;0.20;99.90;;;;;;4950782;28;20043;-63
2024/01/16 01:59:25;;;;;;;3.75;2.53;;;0.20;99.90;;;;;;4948104;28;20483;-63
2024/01/16 02:01:53;;;;;;;4.65;2.15;;;0.10;99.90;;;;;;4950381;28;20023;-60
2024/01/16 02:04:20;;;;;;;5.80;2.20;;;0.10;99.90;;;;;;4948334;28;20171;-61
2024/01/16 02:06:46;;;;;;;5.60;4.07;;;0.10;99.90;;;;;;4950003;28;20110;-62
2024/01/16 02:09:13;;;;;;;9.88;3.47;;;0.10;99.90;;;;;;4947174;28;20027;-61
2024/01/16 02:11:42;;;;;;;10.15;2.20;;;0.10;99.90;;;;;;4947909;28;20050;-60
2024/01/16 02:14:09;;;;;;;3.17;1.88;;;0.10;99.90;;;;;;4949779;28;20085;-61
2024/01/16 02:16:40;;;;;;;2.60;2.20;;;0.10;99.90;;;;;;4948555;28;20019;-61
2024/01/16 02:19:06;;;;;;;3.72;1.63;;;0.10;99.90;;;;;;4948141;28;20028;-63
2024/01/16 02:21:51;;;;;;;2.63;1.90;;;0.20;99.90;;;;;;4950615;28;20032;-64
2024/01/16 02:24:18;;;;;;;5.05;1.90;;;0.10;99.90;;;;;;4947125;28;20579;-60
2024/01/16 02:26:44;;;;;;;3.45;1.90;;;0.20;99.90;;;;;;4945362;28;20134;-60
2024/01/16 02:29:10;;;;;;;5.20;2.35;;;0.10;99.90;;;;;;4946707;28;20135;-60
2024/01/16 02:31:35;;;;;;;5.15;2.10;;;0.10;99.90;;;;;;4949120;28;20023;-61
2024/01/16 02:34:03;;;;;;;3.92;2.13;;;0.10;99.90;;;;;;4949105;28;20030;-61
2024/01/16 02:36:30;;;;;;;2.70;1.80;;;0.10;99.90;;;;;;4943246;28;20043;-60
2024/01/16 02:38:55;;;;;;;4.32;1.90;;;0.10;99.90;;;;;;4946807;28;20078;-61
2024/01/16 02:41:21;;;;;;;5.47;2.03;;;0.10;99.90;;;;;;4950809;28;20035;-60
2024/01/16 02:43:47;;;;;;;9.77;2.22;;;0.10;99.90;;;;;;4950344;28;20510;-60
2024/01/16 02:46:13;;;;;;;3.55;1.65;;;0.10;99.90;;;;;;4950142;28;20024;-63
2024/01/16 02:48:39;;;;;;;4.32;2.28;;;0.10;99.90;;;;;;4948918;28;20031;-62
2024/01/16 02:51:05;;;;;;;5.50;2.00;;;0.10;99.90;;;;;;4948067;28;20551;-62
2024/01/16 02:53:31;;;;;;;5.35;2.00;;;0.10;99.90;;;;;;4949756;28;20491;-61
2024/01/16 02:56:00;;;;;;;7.05;2.28;;;0.10;99.90;;;;;;4949539;28;20031;-61
2024/01/16 02:58:27;;;;;;;4.13;2.00;;;0.20;99.90;;;;;;4924885;28;20095;-63
2024/01/16 03:00:52;;;;;;;7.85;2.20;;;0.20;99.90;;;;;;4932079;29;20040;-61
2024/01/16 03:03:19;;;;;;;2.40;1.52;;;0.20;99.90;;;;;;4948587;28;20054;-62
2024/01/16 03:05:44;;;;;;;9.07;2.55;;;0.20;99.90;;;;;;4946265;28;20039;-60
2024/01/16 03:08:10;;;;;;;5.07;1.75;;;0.10;99.90;;;;;;4937289;28;20032;-61
2024/01/16 03:10:36;;;;;;;7.00;2.42;;;0.10;99.90;;;;;;4952762;28;20479;-61
2024/01/16 03:13:02;;;;;;;4.30;1.92;;;0.10;99.90;;;;;;4953183;28;20155;-62
2024/01/16 03:15:30;;;;;;;4.65;2.13;;;0.10;99.90;;;;;;4950646;28;20037;-63
2024/01/16 03:18:00;;;;;;;3.75;2.08;;;0.10;99.90;;;;;;4950452;28;20030;-61
2024/01/16 03:20:27;;;;;;;6.18;2.33;;;0.10;99.90;;;;;;4953225;28;20043;-61
2024/01/16 03:22:53;;;;;;;12.18;1.88;;;0.10;99.90;;;;;;4952721;28;20046;-61
2024/01/16 03:25:19;;;;;;;2.78;1.63;;;0.10;99.90;;;;;;4951962;28;20058;-60
2024/01/16 03:27:45;;;;;;;2.95;1.70;;;0.10;99.90;;;;;;4958892;28;20049;-61
2024/01/16 03:30:11;;;;;;;4.57;2.05;;;0.10;99.90;;;;;;4949942;28;20102;-61
2024/01/16 03:32:37;;;;;;;3.08;2.13;;;0.00;99.90;;;;;;4952735;28;20031;-61
2024/01/16 03:35:04;;;;;;;3.97;2.05;;;0.00;99.90;;;;;;4950089;28;20424;-60
2024/01/16 03:37:30;;;;;;;4.82;2.30;;;0.00;99.90;;;;;;4949713;28;20582;-60
2024/01/16 03:39:56;;;;;;;12.32;2.85;;;-0.10;99.90;;;;;;4947660;28;20030;-61
2024/01/16 03:42:22;;;;;;;5.45;2.85;;;-0.10;99.90;;;;;;4952816;28;20364;-62
2024/01/16 03:44:49;;;;;;;4.47;2.70;;;-0.10;99.90;;;;;;4952306;28;20034;-62
2024/01/16 03:47:14;;;;;;;9.38;2.65;;;-0.10;99.90;;;;;;4952145;28;20035;-62
2024/01/16 03:49:40;;;;;;;8.60;2.60;;;-0.20;99.90;;;;;;4950857;28;20148;-60
2024/01/16 03:52:06;;;;;;;6.50;2.45;;;-0.20;99.90;;;;;;4952471;28;20579;-61
2024/01/16 03:54:31;;;;;;;6.43;2.53;;;-0.30;99.90;;;;;;4950796;28;20027;-61
2024/01/16 03:56:57;;;;;;;3.50;2.20;;;-0.30;99.90;;;;;;4937287;28;20117;-61
2024/01/16 03:59:23;;;;;;;4.03;2.75;;;-0.30;99.90;;;;;;4924479;29;20043;-63
2024/01/16 04:01:49;;;;;;;4.50;2.83;;;-0.40;99.90;;;;;;4930241;28;20079;-60
2024/01/16 04:04:17;;;;;;;8.63;2.70;;;-0.40;99.90;;;;;;4948085;28;20629;-60
2024/01/16 04:06:43;;;;;;;4.90;3.00;;;-0.40;99.90;;;;;;4953162;28;20524;-60
2024/01/16 04:09:12;;;;;;;8.13;2.72;;;-0.40;99.90;;;;;;4952362;28;20070;-60
2024/01/16 04:11:37;;;;;;;5.15;2.47;;;-0.30;99.90;;;;;;4951686;28;20035;-62
2024/01/16 04:14:04;;;;;;;3.42;2.47;;;-0.30;99.90;;;;;;4951124;28;20026;-62
2024/01/16 04:16:29;;;;;;;4.15;2.92;;;-0.30;99.90;;;;;;4951879;28;20031;-62
2024/01/16 04:18:55;;;;;;;6.53;2.83;;;-0.30;99.90;;;;;;4953965;28;20031;-63
2024/01/16 04:21:20;;;;;;;3.55;1.88;;;-0.30;99.90;;;;;;4951967;28;20070;-60
2024/01/16 04:23:46;;;;;;;7.47;2.42;;;-0.20;99.90;;;;;;4954043;28;20039;-60
2024/01/16 04:26:12;;;;;;;5.13;2.58;;;-0.20;99.90;;;;;;4950653;28;20039;-61
2024/01/16 04:28:37;;;;;;;6.95;2.63;;;-0.20;99.90;;;;;;4951723;28;20067;-63
2024/01/16 04:31:04;;;;;;;4.85;2.28;;;-0.20;99.90;;;;;;4953866;28;20148;-61
2024/01/16 04:33:30;;;;;;;5.70;2.45;;;-0.10;99.90;;;;;;4952268;28;20026;-64
2024/01/16 04:35:56;;;;;;;9.25;2.38;;;-0.10;99.90;;;;;;4952551;28;20031;-63
2024/01/16 04:38:21;;;;;;;7.10;2.70;;;-0.10;99.90;;;;;;4951737;28;20110;-61
2024/01/16 04:40:47;;;;;;;3.60;2.40;;;-0.10;99.90;;;;;;4950457;28;20038;-61
2024/01/16 04:43:13;;;;;;;3.95;2.60;;;-0.10;99.90;;;;;;4952661;28;20535;-60
2024/01/16 04:45:39;;;;;;;7.70;3.00;;;-0.20;99.90;;;;;;4952278;28;20079;-60
2024/01/16 04:48:04;;;;;;;9.07;3.70;;;-0.20;99.90;;;;;;4953550;28;20024;-62
2024/01/16 04:50:33;;;;;;;5.82;3.72;;;-0.20;99.90;;;;;;4951456;28;20114;-61
2024/01/16 04:53:02;;;;;;;8.50;3.65;;;-0.20;99.90;;;;;;4969422;28;20078;-62
2024/01/16 04:55:28;;;;;;;4.82;3.25;;;-0.20;99.90;;;;;;4953210;28;20039;-62
2024/01/16 04:57:54;;;;;;;5.63;3.50;;;-0.20;99.90;;;;;;4953596;28;20492;-61
2024/01/16 05:00:20;;;;;;;5.90;4.07;;;-0.20;99.90;;;;;;4954079;28;20490;-63
2024/01/16 05:02:46;;;;;;;5.10;3.58;;;-0.30;99.90;;;;;;4951827;28;20087;-61
2024/01/16 05:05:12;;;;;;;6.75;4.10;;;-0.30;99.90;;;;;;4949502;28;20086;-61
2024/01/16 05:07:38;;;;;;;6.20;4.75;;;-0.30;99.90;;;;;;4945256;28;20094;-61
2024/01/16 05:10:04;;;;;;;6.78;4.63;;;-0.30;99.90;;;;;;4950625;28;20122;-62
2024/01/16 05:12:30;;;;;;;7.60;4.05;;;-0.20;99.90;;;;;;4951736;28;20043;-61
2024/01/16 05:14:56;;;;;;;4.63;3.60;;;-0.30;99.90;;;;;;4951197;28;20031;-62
2024/01/16 05:17:21;;;;;;;5.95;4.28;;;-0.30;99.90;;;;;;4952270;28;20484;-63
2024/01/16 05:19:47;;;;;;;6.40;4.00;;;-0.30;99.90;;;;;;4949321;28;20127;-61
2024/01/16 05:22:12;;;;;;;9.13;3.72;;;-0.30;99.90;;;;;;4951836;28;20028;-61
2024/01/16 05:24:38;;;;;;;4.50;3.65;;;-0.30;99.90;;;;;;4950688;28;20507;-61
2024/01/16 05:27:07;;;;;;;9.43;3.85;;;-0.30;99.90;;;;;;4955239;28;20031;-60
2024/01/16 05:29:32;;;;;;;5.65;3.60;;;-0.30;99.90;;;;;;4951987;28;20570;-61
2024/01/16 05:31:58;;;;;;;6.72;4.10;;;-0.20;99.90;;;;;;4949376;28;20031;-63
2024/01/16 05:34:24;;;;;;;6.30;3.50;;;-0.30;99.90;;;;;;4946118;28;20022;-63
2024/01/16 05:36:50;;;;;;;5.55;4.05;;;-0.30;99.90;;;;;;4949849;28;20034;-63
2024/01/16 05:39:17;;;;;;;9.27;4.47;;;-0.30;99.90;;;;;;4955733;28;20110;-61
2024/01/16 05:41:42;;;;;;;10.93;4.32;;;-0.30;99.90;;;;;;4951921;28;20086;-60
2024/01/16 05:44:08;;;;;;;6.25;4.10;;;-0.30;99.90;;;;;;4935102;28;20122;-61
2024/01/16 05:46:34;;;;;;;7.95;3.90;;;-0.30;99.90;;;;;;4954343;28;20067;-60
2024/01/16 05:48:59;;;;;;;6.65;3.35;;;-0.30;99.90;;;;;;4952079;28;20082;-61
2024/01/16 05:51:27;;;;;;;10.68;4.35;;;-0.30;99.90;;;;;;4953285;28;20113;-62
2024/01/16 05:53:53;;;;;;;6.90;4.13;;;-0.30;99.90;;;;;;4954484;28;20081;-61
2024/01/16 05:56:18;;;;;;;9.95;4.22;;;-0.30;99.90;;;;;;4952047;28;20122;-62
2024/01/16 05:58:44;;;;;;;5.68;3.55;;;-0.30;99.90;;;;;;4950803;28;20030;-61
2024/01/16 06:01:13;;;;;;;6.20;4.32;;;-0.30;99.90;;;;;;4944300;28;20055;-61
2024/01/16 06:03:39;;;;;;;6.97;3.95;;;-0.30;99.90;;;;;;4950820;28;20023;-63
2024/01/16 06:06:05;;;;;;;9.07;3.42;;;-0.30;99.90;;;;;;4948758;28;20028;-63
2024/01/16 06:08:31;;;;;;;4.95;3.50;;;-0.30;99.90;;;;;;4954221;28;20545;-61
2024/01/16 06:10:57;;;;;;;6.60;3.50;;;-0.20;99.90;;;;;;4949298;28;20032;-61
2024/01/16 06:13:22;;;;;;;5.70;3.70;;;-0.20;99.90;;;;;;4946742;28;20074;-62
2024/01/16 06:15:48;;;;;;;5.65;4.38;;;-0.30;99.90;;;;;;4956137;28;20476;-61
2024/01/16 06:18:13;;;;;;;8.10;3.95;;;-0.30;99.90;;;;;;4948138;28;20035;-61
2024/01/16 06:20:39;;;;;;;7.97;3.83;;;-0.30;99.90;;;;;;4949695;28;20050;-66
2024/01/16 06:23:05;;;;;;;11.32;4.13;;;-0.40;99.90;;;;;;4950066;28;20404;-61
2024/01/16 06:25:30;;;;;;;6.22;4.10;;;-0.50;99.90;;;;;;4947808;28;20110;-61
2024/01/16 06:27:56;;;;;;;9.98;4.53;;;-0.50;99.90;;;;;;4948965;28;20047;-61
2024/01/16 06:30:23;;;;;;;5.82;3.38;;;-0.60;99.90;;;;;;4945878;28;20559;-62
2024/01/16 06:32:48;;;;;;;9.75;4.22;;;-0.50;99.90;;;;;;4944766;28;20035;-61
2024/01/16 06:35:15;;;;;;;8.90;3.53;;;-0.50;99.90;;;;;;4949344;28;20035;-62
2024/01/16 06:37:41;;;;;;;5.47;4.43;;;-0.60;99.90;;;;;;4948969;28;20086;-61
2024/01/16 06:40:07;;;;;;;8.02;4.75;;;-0.60;99.90;;;;;;4951165;28;20456;-61
2024/01/16 06:42:33;;;;;;;7.65;4.18;;;-0.70;99.90;;;;;;4952489;28;21207;-61
2024/01/16 06:44:59;;;;;;;9.65;4.93;;;-0.70;99.90;;;;;;4964612;28;20030;-62
2024/01/16 06:47:24;;;;;;;11.77;4.90;;;-0.70;99.90;;;;;;4948580;28;20094;-64
2024/01/16 06:49:50;;;;;;;10.52;4.85;;;-0.70;99.90;;;;;;4951398;28;20042;-63
2024/01/16 06:52:16;;;;;;;12.75;4.43;;;-0.70;99.90;;;;;;4950054;28;20086;-61
2024/01/16 06:54:41;;;;;;;11.10;4.72;;;-0.80;99.90;;;;;;4951040;28;20050;-63
2024/01/16 06:57:07;;;;;;;9.15;4.72;;;-0.80;99.90;;;;;;4950926;28;20035;-61
2024/01/16 06:59:32;;;;;;;7.78;4.70;;;-0.90;99.90;;;;;;4949347;28;20542;-61
2024/01/16 07:01:58;;;;;;;9.73;5.68;;;-0.90;99.90;;;;;;4947152;28;20053;-61
2024/01/16 07:04:24;;;;;;;7.68;5.25;;;-1.00;99.90;;;;;;4948841;28;20027;-61
2024/01/16 07:06:49;;;;;;;6.93;4.78;;;-1.00;99.90;;;;;;4945724;28;20040;-60
2024/01/16 07:09:16;;;;;;;8.50;4.68;;;-1.00;99.90;;;;;;4950501;28;20505;-62
2024/01/16 07:11:42;;;;;;;7.40;5.35;;;-1.10;99.90;;;;;;4948856;28;20063;-61
2024/01/16 07:14:09;;;;;;;7.45;4.97;;;-1.10;99.90;;;;;;4951628;28;20031;-62
2024/01/16 07:16:35;;;;;;;9.60;5.38;;;-1.20;99.90;;;;;;4952867;28;20020;-62
2024/01/16 07:19:02;;;;;;;6.35;5.53;;;-1.20;99.90;;;;;;4949980;28;20032;-61
2024/01/16 07:21:28;;;;;;;9.40;5.07;;;-1.20;99.90;;;;;;4949223;28;20429;-60
2024/01/16 07:23:54;;;;;;;9.98;6.47;;;-1.20;99.90;;;;;;4952087;28;20046;-62
2024/01/16 07:26:19;;;;;;;9.93;5.57;;;-1.10;99.90;;;;;;4952123;28;20231;-62
2024/01/16 07:28:47;;;;;;;8.85;6.03;;;-1.10;99.90;;;;;;4951187;28;20637;-62
2024/01/16 07:31:13;;;;;;;9.40;6.38;;;-1.00;99.90;;;;;;4950621;28;20050;-62
2024/01/16 07:33:39;;;;;;;7.53;5.82;;;-0.90;99.90;;;;;;4948149;28;20027;-62
2024/01/16 07:36:06;;;;;;;11.40;6.78;;;-0.90;99.90;;;;;;4947799;28;20028;-62
2024/01/16 07:38:32;;;;;;;8.20;6.72;;;-0.80;99.90;;;;;;4950825;28;20051;-63
2024/01/16 07:40:58;;;;;;;16.83;6.65;;;-0.70;99.90;;;;;;4942727;28;20904;-62
2024/01/16 07:43:23;;;;;;;10.57;6.28;;;-0.70;99.90;;;;;;4949975;28;20126;-64
2024/01/16 07:45:49;;;;;;;8.20;5.45;;;-0.60;99.90;;;;;;4946513;28;20900;-63
2024/01/16 07:48:15;;;;;;;9.95;5.72;;;-0.60;99.90;;;;;;4947806;28;20032;-61
2024/01/16 07:50:41;;;;;;;7.22;5.80;;;-0.50;99.90;;;;;;4949549;28;20123;-59
2024/01/16 07:53:07;;;;;;;10.63;6.15;;;-0.40;99.90;;;;;;4950940;28;20050;-61
2024/01/16 07:55:32;;;;;;;10.65;6.53;;;-0.40;99.90;;;;;;4953437;28;20019;-63
2024/01/16 07:57:58;;;;;;;11.20;6.20;;;-0.30;99.90;;;;;;4952188;28;20043;-63
2024/01/16 08:00:23;;;;;;;12.82;6.03;;;-0.30;99.90;;;;;;4951163;28;20060;-62
2024/01/16 08:02:49;;;;;;;13.18;7.13;;;-0.30;99.90;;;;;;4951999;28;20031;-62
2024/01/16 08:05:15;;;;;;;14.38;7.03;;;-0.30;99.90;;;;;;4951666;28;20094;-61
2024/01/16 08:07:44;;;;;;;9.70;6.00;;;-0.20;99.90;;;;;;4951487;28;20033;-61
2024/01/16 08:10:10;;;;;;;12.30;7.00;;;-0.20;99.90;;;;;;4952065;28;20131;-62
2024/01/16 08:12:37;;;;;;;10.25;7.38;;;-0.20;99.90;;;;;;4952740;28;20039;-61
2024/01/16 08:15:03;;;;;;;11.18;7.65;;;-0.20;99.90;;;;;;4952110;28;20523;-63
2024/01/16 08:17:28;;;;;;;13.15;6.53;;;-0.20;99.90;;;;;;4953208;28;20042;-63
2024/01/16 08:19:54;;;;;;;14.68;7.82;;;-0.20;99.90;;;;;;4954459;28;20031;-63
2024/01/16 08:22:20;;;;;;;10.32;8.32;;;-0.20;99.90;;;;;;4956472;28;20054;-62
2024/01/16 08:24:45;;;;;;;41.42;18.48;;;-0.20;99.90;;;;;;4961440;28;20432;-61
2024/01/16 08:27:12;;;;;;;127.00;50.70;;;-0.20;99.90;;;;;;4947882;28;20550;-63
2024/01/16 08:29:37;;;;;;;91.95;43.90;;;-0.20;99.90;;;;;;4948295;28;20028;-62
2024/01/16 08:32:04;;;;;;;48.17;24.17;;;-0.20;99.90;;;;;;4951468;28;20394;-63
2024/01/16 08:34:29;;;;;;;21.25;12.25;;;-0.20;99.90;;;;;;4949435;28;20036;-63
2024/01/16 08:36:56;;;;;;;17.23;11.85;;;-0.20;99.90;;;;;;4951210;28;20038;-61
2024/01/16 08:39:23;;;;;;;26.58;19.02;;;-0.20;99.90;;;;;;4967111;28;20031;-63
2024/01/16 08:41:49;;;;;;;38.45;22.05;;;-0.20;99.90;;;;;;4951947;28;20042;-60
2024/01/16 08:44:15;;;;;;;43.90;26.75;;;-0.10;99.90;;;;;;4954381;28;20031;-62
2024/01/16 08:46:41;;;;;;;41.22;26.73;;;-0.10;99.90;;;;;;4958813;28;20071;-61
2024/01/16 08:49:06;;;;;;;23.52;19.05;;;-0.10;99.90;;;;;;4954002;28;20041;-61
2024/01/16 08:51:32;;;;;;;24.20;16.88;;;0.00;99.90;;;;;;4957056;28;20089;-62
2024/01/16 08:53:58;;;;;;;20.73;14.90;;;0.10;99.90;;;;;;4950074;28;20145;-62
2024/01/16 08:56:23;;;;;;;14.02;9.90;;;0.20;99.90;;;;;;4948276;28;20081;-63
2024/01/16 08:58:49;;;;;;;13.23;7.15;;;0.30;99.90;;;;;;4955528;28;20149;-63
2024/01/16 09:01:14;;;;;;;9.48;7.10;;;0.40;99.90;;;;;;4961290;28;20027;-61
2024/01/16 09:03:41;;;;;;;10.52;6.38;;;0.50;99.90;;;;;;4960014;28;20048;-62
2024/01/16 09:06:06;;;;;;;9.40;5.45;;;0.60;99.90;;;;;;4948812;28;20404;-62
2024/01/16 09:08:32;;;;;;;8.93;5.57;;;0.60;99.90;;;;;;4953088;28;20027;-62
2024/01/16 09:10:58;;;;;;;10.52;5.32;;;0.60;99.90;;;;;;4955710;28;20032;-63
2024/01/16 09:13:23;;;;;;;10.93;8.00;;;0.60;99.90;;;;;;4952796;28;20027;-62
2024/01/16 09:15:49;;;;;;;10.57;5.80;;;0.70;99.90;;;;;;4958492;28;20407;-62
2024/01/16 09:18:16;;;;;;;6.60;4.95;;;0.80;99.90;;;;;;4953214;28;20119;-62
2024/01/16 09:20:44;;;;;;;7.03;4.43;;;0.90;99.90;;;;;;4932346;28;20028;-62
2024/01/16 09:23:10;;;;;;;8.60;4.88;;;0.90;99.90;;;;;;4934504;28;20040;-61
2024/01/16 09:25:36;;;;;;;7.60;5.18;;;1.00;99.90;;;;;;4951559;28;20030;-59
2024/01/16 09:28:02;;;;;;;10.90;4.78;;;1.00;99.90;;;;;;4953620;28;20031;-62
2024/01/16 09:30:28;;;;;;;6.15;5.55;;;1.00;99.90;;;;;;4951336;28;20034;-63
2024/01/16 09:32:53;;;;;;;8.13;6.10;;;1.00;99.90;;;;;;4951646;28;20058;-61
2024/01/16 09:35:19;;;;;;;8.88;5.70;;;1.10;99.90;;;;;;4950969;28;20027;-61
2024/01/16 09:37:45;;;;;;;9.40;5.22;;;1.10;99.90;;;;;;4950413;28;20023;-62
2024/01/16 09:40:11;;;;;;;5.10;4.50;;;1.10;99.90;;;;;;4949427;28;20051;-61
2024/01/16 09:42:37;;;;;;;11.00;5.82;;;1.30;99.90;;;;;;4950718;28;20047;-60
2024/01/16 09:45:03;;;;;;;6.32;4.90;;;1.50;99.90;;;;;;4952441;28;20051;-61
2024/01/16 09:47:33;;;;;;;8.02;4.53;;;1.60;99.90;;;;;;4955303;28;20069;-64
2024/01/16 09:50:03;;;;;;;7.93;5.27;;;1.70;99.90;;;;;;4953625;28;20521;-62
2024/01/16 09:52:29;;;;;;;7.97;6.53;;;1.70;99.90;;;;;;4953725;28;20036;-61
2024/01/16 09:54:55;;;;;;;7.80;4.93;;;1.70;99.90;;;;;;4951612;28;20038;-64
2024/01/16 09:57:25;;;;;;;9.07;4.55;;;1.70;99.90;;;;;;4952628;28;20094;-61
2024/01/16 09:59:56;;;;;;;3.72;3.33;;;1.90;99.90;;;;;;4959201;28;20035;-63
2024/01/16 10:02:23;;;;;;;7.15;4.20;;;2.10;99.90;;;;;;4948892;28;20504;-61
2024/01/16 10:04:49;;;;;;;8.00;4.95;;;2.30;99.90;;;;;;4945462;28;20038;-61
2024/01/16 10:07:16;;;;;;;14.02;6.63;;;2.50;99.90;;;;;;4944968;28;20023;-62
2024/01/16 10:09:43;;;;;;;6.28;4.53;;;2.20;99.90;;;;;;4950882;28;20024;-61
2024/01/16 10:12:10;;;;;;;6.78;4.28;;;2.10;99.90;;;;;;4953201;28;20027;-62
2024/01/16 10:14:36;;;;;;;7.10;4.97;;;2.10;99.90;;;;;;4955804;28;20031;-61
2024/01/16 10:17:13;;;;;;;5.85;4.05;;;1.90;99.90;;;;;;4946058;28;20087;-61
2024/01/16 10:19:49;;;;;;;9.48;4.78;;;2.00;99.90;;;;;;4951178;28;20015;-63
2024/01/16 10:22:30;;;;;;;7.93;4.10;;;2.00;99.90;;;;;;4946285;28;20043;-62
2024/01/16 10:25:05;;;;;;;;;;;1.80;99.90;;;;;;4955558;28;20023;-61
2024/01/16 10:27:31;;;;;;;8.65;5.18;;;1.50;99.90;;;;;;4949455;28;20005;-64
2024/01/16 10:29:58;;;;;;;11.98;5.65;;;1.40;99.90;;;;;;4940893;28;20127;-62
2024/01/16 10:32:41;;;;;;;10.20;4.65;;;1.30;99.90;;;;;;4943645;28;20046;-61
2024/01/16 10:35:09;;;;;;;7.15;5.20;;;1.10;99.90;;;;;;4958874;28;20387;-60
2024/01/16 10:37:48;;;;;;;7.53;4.55;;;1.00;99.90;;;;;;4951541;28;20066;-61
2024/01/16 10:40:19;;;;;;;7.18;4.43;;;0.90;99.90;;;;;;4951283;28;20598;-62
2024/01/16 10:43:17;;;;;;;5.82;4.60;;;0.90;99.90;;;;;;4951111;28;20042;-62
2024/01/16 10:45:43;;;;;;;6.63;4.78;;;0.80;99.90;;;;;;4920169;29;20543;-62
2024/01/16 10:48:08;;;;;;;7.03;5.00;;;0.70;99.90;;;;;;4933152;29;20027;-61
2024/01/16 10:50:35;;;;;;;7.10;4.35;;;0.70;99.90;;;;;;4934170;29;20035;-62
2024/01/16 10:53:06;;;;;;;7.30;4.90;;;0.70;99.90;;;;;;4930542;28;20039;-61
2024/01/16 10:55:38;;;;;;;9.00;5.75;;;0.70;99.90;;;;;;4933140;29;20095;-62
2024/01/16 10:58:06;;;;;;;15.80;6.13;;;0.80;99.90;;;;;;4928379;29;20047;-63
2024/01/16 11:00:36;;;;;;;8.57;5.00;;;0.80;99.90;;;;;;4929398;29;20036;-61
2024/01/16 11:03:07;;;;;;;7.13;4.78;;;0.80;99.90;;;;;;4933020;28;20062;-62
2024/01/16 11:05:33;;;;;;;;;;;0.80;99.90;;;;;;4934473;29;20028;-61
2024/01/16 11:08:03;;;;;;;8.98;4.38;;;0.80;99.90;;;;;;4931025;28;19914;-61
2024/01/16 11:10:30;;;;;;;6.28;4.70;;;0.80;99.90;;;;;;4931865;29;20047;-61
2024/01/16 11:13:00;;;;;;;8.40;4.72;;;0.70;99.90;;;;;;4929886;29;20044;-63
2024/01/16 11:15:28;;;;;;;5.30;4.25;;;0.80;99.90;;;;;;4939847;28;20624;-63
2024/01/16 11:17:55;;;;;;;8.98;4.95;;;0.70;99.90;;;;;;4930002;29;20056;-61
2024/01/16 11:20:21;;;;;;;5.93;4.05;;;0.70;99.90;;;;;;4934355;28;20040;-61
2024/01/16 11:22:49;;;;;;;8.65;4.40;;;0.70;99.90;;;;;;4936908;28;20035;-61
2024/01/16 11:25:17;;;;;;;7.18;3.53;;;0.80;99.90;;;;;;4926947;29;20106;-61
2024/01/16 11:27:44;;;;;;;4.47;3.83;;;0.70;99.90;;;;;;4941876;28;20419;-63
2024/01/16 11:30:11;;;;;;;8.18;5.10;;;0.70;99.90;;;;;;4937126;28;20039;-62
2024/01/16 11:32:41;;;;;;;7.55;3.90;;;0.80;99.90;;;;;;4935968;29;20028;-62
2024/01/16 11:35:07;;;;;;;8.40;4.25;;;0.90;99.90;;;;;;4929469;29;20033;-61
2024/01/16 11:37:36;;;;;;;6.28;4.57;;;0.90;99.90;;;;;;4928350;29;20020;-62
2024/01/16 11:40:20;;;;;;;10.65;5.18;;;0.90;99.90;;;;;;4931474;28;20043;-62
2024/01/16 11:42:53;;;;;;;8.40;4.65;;;0.90;99.90;;;;;;4949102;28;20808;-62
2024/01/16 11:45:31;;;;;;;9.00;5.40;;;1.00;99.90;;;;;;4953180;28;20031;-61
2024/01/16 11:48:13;;;;;;;9.35;5.00;;;1.00;99.90;;;;;;4969687;28;20024;-62
2024/01/16 11:50:39;;;;;;;8.05;5.07;;;1.10;99.90;;;;;;4950077;28;20028;-62
2024/01/16 11:53:05;;;;;;;7.85;5.10;;;1.30;99.90;;;;;;4949718;28;20071;-61
2024/01/16 11:55:32;;;;;;;13.63;5.10;;;1.40;99.90;;;;;;4951734;28;20032;-61
2024/01/16 11:58:37;;;;;;;10.63;5.00;;;1.60;99.90;;;;;;4948416;28;20036;-61
2024/01/16 12:01:05;;;;;;;5.10;3.88;;;1.60;99.90;;;;;;4947518;28;20388;-62
2024/01/16 12:03:32;;;;;;;6.47;4.30;;;1.60;99.90;;;;;;4952562;28;20031;-61
2024/01/16 12:05:59;;;;;;;6.10;4.45;;;1.50;99.90;;;;;;4953759;28;20110;-61
2024/01/16 12:08:25;;;;;;;10.20;4.65;;;1.60;99.90;;;;;;4946408;29;20419;-61
2024/01/16 12:10:51;;;;;;;6.00;4.30;;;1.60;99.90;;;;;;4946792;28;20027;-62
2024/01/16 12:13:17;;;;;;;7.30;4.35;;;1.80;99.90;;;;;;4949857;28;20023;-62
2024/01/16 12:15:43;;;;;;;7.15;4.20;;;1.80;99.90;;;;;;4954580;28;20050;-62
2024/01/16 12:18:09;;;;;;;7.53;4.43;;;1.60;99.90;;;;;;4953862;28;20078;-61
2024/01/16 12:20:38;;;;;;;7.97;4.10;;;1.50;99.90;;;;;;4951691;28;20039;-61
2024/01/16 12:23:09;;;;;;;7.57;4.13;;;1.30;99.90;;;;;;4956892;28;20050;-65
2024/01/16 12:25:38;;;;;;;8.05;4.45;;;1.10;99.90;;;;;;4954695;28;20043;-64
2024/01/16 12:28:10;;;;;;;7.45;3.67;;;1.10;99.90;;;;;;4964518;28;20079;-62
2024/01/16 12:30:37;;;;;;;6.22;4.40;;;1.00;99.90;;;;;;4957624;28;20495;-61
2024/01/16 12:33:10;;;;;;;6.25;4.47;;;0.90;99.90;;;;;;4952985;28;20103;-63
2024/01/16 12:35:41;;;;;;;9.77;5.53;;;0.80;99.90;;;;;;4952942;28;20038;-61
2024/01/16 12:38:12;;;;;;;10.23;4.30;;;0.70;99.90;;;;;;4947688;28;20027;-62
2024/01/16 12:40:41;;;;;;;7.13;4.20;;;0.70;99.90;;;;;;4953580;28;20015;-60
2024/01/16 12:43:09;;;;;;;6.70;4.53;;;0.60;99.90;;;;;;4951395;28;20042;-64
2024/01/16 12:45:35;;;;;;;5.70;4.28;;;0.60;99.90;;;;;;4953712;28;20380;-61
2024/01/16 12:48:01;;;;;;;6.80;4.35;;;0.60;99.90;;;;;;4952204;28;20066;-61